Time;durP1;ratioP1;P1;durP2;ratioP2;P2;SDS_P1;SDS_P2;PMS_P1;PMS_P2;Temp;Humidity;BMP_temperature;BMP_pressure;BME280_temperature;BME280_humidity;BME280_pressure;Samples;Min_cycle;Max_cycle;Signal;HPM_P1;HPM_P2
2022/05/19 00:01:10;;;;;;;8.63;7.45;;;;;;;18.69;100.00;101461.31;4985749;28;19913;-74
2022/05/19 00:03:38;;;;;;;14.73;9.13;;;;;;;18.77;100.00;101458.47;4986493;28;20096;-74
2022/05/19 00:06:05;;;;;;;11.73;8.15;;;;;;;18.72;100.00;101458.22;4985926;28;20404;-74
2022/05/19 00:08:31;;;;;;;16.50;8.80;;;;;;;18.68;100.00;101463.19;4981251;28;20039;-75
2022/05/19 00:11:00;;;;;;;11.35;8.80;;;;;;;18.69;100.00;101456.75;4983309;28;20038;-74
2022/05/19 00:13:27;;;;;;;13.50;9.32;;;;;;;18.63;100.00;101460.22;4985249;28;20041;-74
2022/05/19 00:15:53;;;;;;;12.27;8.23;;;;;;;18.66;100.00;101448.19;4985283;28;20023;-74
2022/05/19 00:18:19;;;;;;;10.60;7.78;;;;;;;18.72;100.00;101441.97;4967858;28;20625;-75
2022/05/19 00:20:46;;;;;;;16.25;8.90;;;;;;;18.69;100.00;101440.53;4986821;28;20207;-75
2022/05/19 00:23:12;;;;;;;9.63;8.63;;;;;;;18.66;100.00;101435.53;4988009;28;20042;-74
2022/05/19 00:25:38;;;;;;;13.73;8.50;;;;;;;18.65;100.00;101438.41;4982246;28;20027;-74
2022/05/19 00:28:05;;;;;;;11.13;8.77;;;;;;;18.64;100.00;101443.00;4986571;28;20136;-74
2022/05/19 00:30:31;;;;;;;10.45;8.75;;;;;;;18.55;100.00;101436.91;4982582;28;20058;-74
2022/05/19 00:32:56;;;;;;;11.32;8.80;;;;;;;18.58;100.00;101438.38;5001261;28;20480;-74
2022/05/19 00:35:22;;;;;;;14.40;8.70;;;;;;;18.69;100.00;101435.09;4985601;28;20045;-74
2022/05/19 00:37:47;;;;;;;11.60;8.80;;;;;;;18.63;100.00;101429.66;4985660;28;20034;-74
2022/05/19 00:40:12;;;;;;;13.17;8.47;;;;;;;18.52;100.00;101434.59;4984799;28;20027;-75
2022/05/19 00:42:44;;;;;;;11.63;9.13;;;;;;;18.54;100.00;101439.78;4968112;28;20186;-74
2022/05/19 00:45:27;;;;;;;12.45;8.82;;;;;;;18.52;100.00;101433.78;4986941;28;20039;-74
2022/05/19 00:47:58;;;;;;;11.15;8.77;;;;;;;18.51;100.00;101437.50;4983473;28;20031;-75
2022/05/19 00:50:26;;;;;;;13.32;9.48;;;;;;;18.54;100.00;101437.09;4983551;28;20045;-74
2022/05/19 00:53:00;;;;;;;13.27;9.43;;;;;;;18.47;100.00;101445.19;4984036;28;20026;-74
2022/05/19 00:55:32;;;;;;;13.27;8.50;;;;;;;18.46;100.00;101434.56;4980771;28;20047;-74
2022/05/19 00:58:05;;;;;;;13.48;8.60;;;;;;;18.45;100.00;101433.72;4986285;28;20041;-74
2022/05/19 01:00:31;;;;;;;13.82;8.98;;;;;;;18.36;100.00;101443.00;4989098;28;20038;-74
2022/05/19 01:02:59;;;;;;;11.03;9.67;;;;;;;18.35;100.00;101444.03;4987021;28;20033;-74
2022/05/19 01:05:36;;;;;;;14.43;9.82;;;;;;;18.35;100.00;101449.44;4988667;28;20030;-74
2022/05/19 01:08:14;;;;;;;14.65;9.50;;;;;;;18.30;100.00;101446.50;4987894;28;20037;-74
2022/05/19 01:10:41;;;;;;;11.02;9.25;;;;;;;18.21;100.00;101447.66;4987116;28;20074;-74
2022/05/19 01:13:07;;;;;;;12.32;9.00;;;;;;;18.21;100.00;101442.25;4989030;28;20026;-74
2022/05/19 01:15:40;;;;;;;12.48;8.68;;;;;;;18.22;100.00;101443.94;4984076;28;20506;-74
2022/05/19 01:18:07;;;;;;;12.75;9.40;;;;;;;18.23;100.00;101438.31;4987854;28;20026;-74
2022/05/19 01:20:35;;;;;;;14.20;9.30;;;;;;;18.11;100.00;101434.50;4988562;28;20034;-74
2022/05/19 01:23:05;;;;;;;13.05;9.95;;;;;;;18.11;100.00;101442.59;4988117;28;20080;-72
2022/05/19 01:25:47;;;;;;;13.63;8.80;;;;;;;18.09;100.00;101440.09;4986862;28;20492;-74
2022/05/19 01:28:13;;;;;;;10.68;9.43;;;;;;;18.10;100.00;101436.38;4994877;28;20164;-74
2022/05/19 01:30:40;;;;;;;13.40;9.38;;;;;;;18.05;100.00;101440.66;4989347;28;20053;-74
2022/05/19 01:33:06;;;;;;;14.18;9.68;;;;;;;18.03;100.00;101446.28;4972107;28;20045;-72
2022/05/19 01:35:33;;;;;;;11.75;9.55;;;;;;;18.02;100.00;101450.00;4989684;28;20113;-74
2022/05/19 01:38:00;;;;;;;19.45;9.63;;;;;;;17.99;100.00;101453.09;4987828;28;20038;-74
2022/05/19 01:41:08;;;;;;;12.93;10.05;;;;;;;17.97;100.00;101452.47;4987600;28;20081;-74
2022/05/19 01:44:08;;;;;;;11.13;10.00;;;;;;;17.87;100.00;101441.16;4974975;28;20140;-74
2022/05/19 01:46:36;;;;;;;14.05;9.50;;;;;;;17.91;100.00;101434.31;4980745;28;20042;-74
2022/05/19 01:49:21;;;;;;;14.38;9.80;;;;;;;17.86;100.00;101443.03;4970461;28;20053;-74
2022/05/19 01:52:12;;;;;;;12.32;8.77;;;;;;;17.80;100.00;101435.66;4984992;28;20559;-74
2022/05/19 01:54:58;;;;;;;13.30;9.25;;;;;;;17.84;100.00;101436.13;4987848;28;20125;-74
2022/05/19 01:57:26;;;;;;;14.73;10.35;;;;;;;17.79;100.00;101442.06;4987706;28;20463;-74
2022/05/19 02:00:03;;;;;;;12.98;9.50;;;;;;;17.72;100.00;101433.94;4987193;28;20026;-74
2022/05/19 02:02:52;;;;;;;10.55;9.23;;;;;;;17.77;100.00;101440.59;4987317;28;20046;-74
2022/05/19 02:05:36;;;;;;;13.35;9.60;;;;;;;17.75;100.00;101426.44;4985637;28;20042;-74
2022/05/19 02:08:04;;;;;;;12.07;9.32;;;;;;;17.72;100.00;101427.66;4970167;28;20030;-74
2022/05/19 02:10:36;;;;;;;12.95;9.27;;;;;;;17.75;100.00;101427.31;4987164;28;20022;-74
2022/05/19 02:13:03;;;;;;;11.10;9.55;;;;;;;17.75;100.00;101421.91;4985563;28;20275;-74
2022/05/19 02:15:34;;;;;;;11.20;9.32;;;;;;;17.75;100.00;101421.03;4980588;28;20026;-74
2022/05/19 02:18:00;;;;;;;11.93;9.60;;;;;;;17.77;100.00;101427.94;4986135;28;20058;-74
2022/05/19 02:20:28;;;;;;;10.45;8.55;;;;;;;17.68;100.00;101419.13;4987482;28;20026;-72
2022/05/19 02:22:54;;;;;;;14.23;9.57;;;;;;;17.66;100.00;101414.97;4986706;28;20042;-72
2022/05/19 02:25:39;;;;;;;11.45;10.27;;;;;;;17.63;100.00;101421.59;4982865;28;20389;-72
2022/05/19 02:28:07;;;;;;;17.42;10.27;;;;;;;17.66;100.00;101418.50;4979687;28;20535;-74
2022/05/19 02:30:35;;;;;;;11.50;10.13;;;;;;;17.66;100.00;101423.88;4982747;28;20023;-74
2022/05/19 02:33:01;;;;;;;13.45;9.40;;;;;;;17.63;100.00;101426.13;4983225;28;20053;-74
2022/05/19 02:35:28;;;;;;;11.02;9.38;;;;;;;17.55;100.00;101432.50;4984207;28;20180;-74
2022/05/19 02:37:54;;;;;;;;;;;;;;;17.55;100.00;101431.66;4985275;28;20042;-74
2022/05/19 02:40:22;;;;;;;13.82;9.68;;;;;;;17.50;100.00;101434.94;4972022;28;19921;-74
2022/05/19 02:42:47;;;;;;;11.77;8.90;;;;;;;17.48;100.00;101432.41;4985125;28;20034;-74
2022/05/19 02:45:15;;;;;;;10.63;9.10;;;;;;;17.48;100.00;101443.22;4986785;28;20514;-72
2022/05/19 02:47:40;;;;;;;10.85;8.88;;;;;;;17.45;100.00;101437.38;5001577;28;20068;-72
2022/05/19 02:50:07;;;;;;;10.17;8.37;;;;;;;17.44;100.00;101446.50;4988122;28;20053;-72
2022/05/19 02:52:32;;;;;;;10.98;8.88;;;;;;;17.35;100.00;101436.84;4986508;28;20042;-72
2022/05/19 02:54:58;;;;;;;16.13;10.23;;;;;;;17.26;100.00;101444.22;4988085;28;20022;-72
2022/05/19 02:57:23;;;;;;;13.80;10.27;;;;;;;17.37;100.00;101450.97;4987785;28;20037;-72
2022/05/19 02:59:48;;;;;;;17.40;9.53;;;;;;;17.35;100.00;101443.09;4985188;28;20551;-72
2022/05/19 03:02:14;;;;;;;12.67;9.43;;;;;;;17.33;100.00;101441.59;4987668;28;20049;-72
2022/05/19 03:04:39;;;;;;;14.50;9.70;;;;;;;17.28;100.00;101448.41;4984043;28;20235;-72
2022/05/19 03:07:05;;;;;;;10.95;9.85;;;;;;;17.22;100.00;101440.22;4970323;28;20064;-71
2022/05/19 03:09:30;;;;;;;14.23;9.10;;;;;;;17.16;100.00;101443.66;4995217;28;20040;-72
2022/05/19 03:11:56;;;;;;;11.00;9.33;;;;;;;17.15;100.00;101453.63;4986383;28;20081;-72
2022/05/19 03:14:21;;;;;;;11.97;9.77;;;;;;;17.13;100.00;101439.50;4986260;28;20030;-72
2022/05/19 03:16:46;;;;;;;10.53;8.87;;;;;;;17.06;100.00;101442.09;4984941;28;20034;-72
2022/05/19 03:19:15;;;;;;;10.30;8.93;;;;;;;17.01;100.00;101449.94;4986080;28;20027;-72
2022/05/19 03:21:42;;;;;;;10.30;8.80;;;;;;;17.03;100.00;101445.19;4985383;28;20050;-72
2022/05/19 03:24:08;;;;;;;18.30;11.20;;;;;;;17.00;100.00;101439.34;4970044;28;20109;-72
2022/05/19 03:26:33;;;;;;;;;;;;;;;16.95;100.00;101448.00;4987671;28;20038;-73
2022/05/19 03:28:58;;;;;;;;;;;;;;;17.01;100.00;101451.78;4988013;28;19921;-72
2022/05/19 03:31:24;;;;;;;14.97;9.27;;;;;;;16.95;100.00;101436.34;4989067;28;20007;-72
2022/05/19 03:33:50;;;;;;;13.73;9.02;;;;;;;16.89;100.00;101435.25;4985770;28;20442;-72
2022/05/19 03:36:16;;;;;;;11.33;9.13;;;;;;;16.91;100.00;101440.47;4987660;28;20038;-72
2022/05/19 03:38:42;;;;;;;;;;;;;;;16.98;100.00;101442.22;4986548;28;20023;-72
2022/05/19 03:41:07;;;;;;;;;;;;;;;17.00;100.00;101436.66;4986045;28;20298;-72
2022/05/19 03:43:32;;;;;;;12.17;8.97;;;;;;;17.01;100.00;101438.31;4971278;28;19929;-72
2022/05/19 03:46:00;;;;;;;12.47;9.93;;;;;;;17.00;100.00;101436.66;4969401;28;20410;-72
2022/05/19 03:48:25;;;;;;;15.00;9.27;;;;;;;17.05;100.00;101439.63;4986334;28;20092;-72
2022/05/19 03:50:51;;;;;;;13.77;8.23;;;;;;;17.13;100.00;101434.09;4984701;28;20117;-72
2022/05/19 03:53:16;;;;;;;13.10;9.67;;;;;;;17.18;100.00;101436.22;4985899;28;20124;-72
2022/05/19 03:55:42;;;;;;;12.43;8.80;;;;;;;17.18;100.00;101441.63;4967909;28;20035;-72
2022/05/19 03:58:07;;;;;;;11.53;9.17;;;;;;;17.18;100.00;101455.13;4999161;28;20499;-72
2022/05/19 04:00:33;;;;;;;14.73;9.40;;;;;;;17.18;100.00;101460.50;4987462;28;20491;-72
2022/05/19 04:02:59;;;;;;;13.32;8.98;;;;;;;17.03;100.00;101466.75;5001707;28;20108;-74
2022/05/19 04:05:28;;;;;;;10.15;7.80;;;;;;;17.02;100.00;101483.13;4981952;28;20068;-74
2022/05/19 04:07:53;;;;;;;12.52;9.10;;;;;;;16.93;100.00;101477.00;4970104;28;20058;-74
2022/05/19 04:10:19;;;;;;;9.90;8.10;;;;;;;16.90;100.00;101487.31;4968077;28;20073;-74
2022/05/19 04:12:45;;;;;;;11.77;8.07;;;;;;;16.84;100.00;101473.56;4969092;28;20038;-73
2022/05/19 04:15:12;;;;;;;11.10;8.27;;;;;;;16.92;100.00;101477.19;4980106;28;20502;-74
2022/05/19 04:17:38;;;;;;;11.07;8.18;;;;;;;16.90;100.00;101484.63;4985271;28;20499;-72
2022/05/19 04:20:07;;;;;;;10.30;8.15;;;;;;;16.88;100.00;101479.44;4986462;28;20093;-72
2022/05/19 04:22:33;;;;;;;10.30;9.00;;;;;;;16.85;100.00;101480.63;4985168;28;20488;-74
2022/05/19 04:25:01;;;;;;;10.13;8.10;;;;;;;16.77;100.00;101472.59;4983899;28;20034;-74
2022/05/19 04:27:30;;;;;;;10.07;8.57;;;;;;;16.77;100.00;101466.38;4969391;28;20121;-74
2022/05/19 04:29:56;;;;;;;10.55;8.32;;;;;;;16.93;100.00;101471.63;4983551;28;20088;-74
2022/05/19 04:32:21;;;;;;;12.70;9.07;;;;;;;17.00;100.00;101475.25;4985349;28;20419;-74
2022/05/19 04:34:47;;;;;;;11.45;8.05;;;;;;;17.06;100.00;101476.34;4970976;28;20559;-74
2022/05/19 04:37:12;;;;;;;8.30;7.47;;;;;;;17.25;100.00;101483.84;4989665;28;20061;-74
2022/05/19 04:39:38;;;;;;;12.10;8.63;;;;;;;17.46;100.00;101487.63;4969300;28;20070;-72
2022/05/19 04:42:08;;;;;;;8.93;7.80;;;;;;;17.61;100.00;101479.50;4990731;28;20112;-72
2022/05/19 04:44:34;;;;;;;12.23;8.98;;;;;;;17.71;100.00;101464.66;4989407;28;20038;-74
2022/05/19 04:46:59;;;;;;;10.95;9.18;;;;;;;17.86;100.00;101461.94;4989392;28;20014;-74
2022/05/19 04:49:24;;;;;;;12.83;9.50;;;;;;;17.89;100.00;101460.72;4989370;28;20053;-73
2022/05/19 04:51:50;;;;;;;11.53;8.87;;;;;;;18.07;100.00;101471.03;4989312;28;20534;-74
2022/05/19 04:54:15;;;;;;;11.33;9.60;;;;;;;18.26;100.00;101461.41;4989151;28;20034;-74
2022/05/19 04:56:41;;;;;;;14.63;8.30;;;;;;;18.55;100.00;101469.34;4989125;28;20454;-73
2022/05/19 04:59:13;;;;;;;11.23;8.68;;;;;;;18.71;100.00;101456.56;4989021;28;20399;-74
2022/05/19 05:01:40;;;;;;;11.68;8.90;;;;;;;18.70;100.00;101425.13;4987506;28;20045;-74
2022/05/19 05:04:06;;;;;;;18.63;11.50;;;;;;;18.63;100.00;101424.25;4988752;28;20547;-74
2022/05/19 05:06:32;;;;;;;12.05;8.95;;;;;;;18.56;100.00;101443.97;4989144;28;20069;-74
2022/05/19 05:08:57;;;;;;;12.77;8.82;;;;;;;18.25;100.00;101455.19;4971224;28;20018;-74
2022/05/19 05:11:23;;;;;;;11.50;9.80;;;;;;;17.97;100.00;101459.72;4990452;28;20042;-74
2022/05/19 05:13:48;;;;;;;12.52;9.00;;;;;;;17.87;100.00;101462.75;4987487;28;20044;-74
2022/05/19 05:16:14;;;;;;;11.33;10.07;;;;;;;17.92;100.00;101473.81;4989017;28;20041;-73
2022/05/19 05:18:39;;;;;;;12.20;9.67;;;;;;;17.86;100.00;101477.28;4987565;28;20065;-73
2022/05/19 05:21:06;;;;;;;16.53;9.50;;;;;;;17.83;100.00;101477.69;4987523;28;20030;-74
2022/05/19 05:23:31;;;;;;;13.55;9.52;;;;;;;18.06;100.00;101475.63;4988647;28;20061;-74
2022/05/19 05:25:57;;;;;;;14.50;10.27;;;;;;;18.27;100.00;101473.91;4987555;28;20914;-74
2022/05/19 05:28:22;;;;;;;13.03;9.50;;;;;;;18.43;100.00;101470.94;4988523;28;20113;-73
2022/05/19 05:30:49;;;;;;;14.40;9.47;;;;;;;18.68;100.00;101452.38;4970890;28;20061;-74
2022/05/19 05:33:18;;;;;;;12.05;9.82;;;;;;;18.90;100.00;101449.63;4987236;28;20476;-74
2022/05/19 05:35:44;;;;;;;17.43;10.60;;;;;;;18.58;100.00;101415.91;4988561;28;20093;-74
2022/05/19 05:38:09;;;;;;;16.92;9.75;;;;;;;18.46;100.00;101440.78;4988536;28;20061;-74
2022/05/19 05:40:36;;;;;;;11.40;9.30;;;;;;;18.35;100.00;101460.25;4986284;28;20046;-73
2022/05/19 05:43:07;;;;;;;11.98;9.52;;;;;;;18.79;100.00;101456.41;4970581;28;20109;-74
2022/05/19 05:45:33;;;;;;;13.05;8.43;;;;;;;19.37;100.00;101456.88;4987774;28;20042;-73
2022/05/19 05:47:58;;;;;;;15.38;9.25;;;;;;;19.57;100.00;101415.47;4986779;28;20627;-72
2022/05/19 05:50:24;;;;;;;13.30;9.17;;;;;;;20.40;100.00;101402.38;4990656;28;20034;-74
2022/05/19 05:52:49;;;;;;;13.20;8.85;;;;;;;20.58;100.00;101358.34;4977191;28;20060;-74
2022/05/19 05:55:15;;;;;;;11.83;8.50;;;;;;;20.37;100.00;101367.53;4988762;28;20038;-74
2022/05/19 05:57:40;;;;;;;10.50;8.97;;;;;;;20.63;100.00;101366.66;4989332;28;20054;-74
2022/05/19 06:00:08;;;;;;;10.07;8.03;;;;;;;20.50;100.00;101355.81;4984303;28;20053;-74
2022/05/19 06:02:38;;;;;;;11.38;8.23;;;;;;;20.45;100.00;101390.88;4985262;28;20034;-74
2022/05/19 06:05:04;;;;;;;16.88;9.90;;;;;;;19.92;100.00;101374.69;4970411;28;20026;-75
2022/05/19 06:07:29;;;;;;;12.93;7.57;;;;;;;20.02;100.00;101426.59;4972593;28;20022;-75
2022/05/19 06:09:56;;;;;;;9.60;7.77;;;;;;;20.95;100.00;101426.44;4985391;28;20061;-75
2022/05/19 06:12:25;;;;;;;9.05;7.43;;;;;;;21.02;100.00;101345.78;4986245;28;20101;-73
2022/05/19 06:14:53;;;;;;;10.95;7.85;;;;;;;20.78;100.00;101354.69;4987644;28;20026;-75
2022/05/19 06:17:19;;;;;;;9.13;7.57;;;;;;;20.58;100.00;101379.19;4970268;28;20062;-75
2022/05/19 06:19:44;;;;;;;9.10;7.50;;;;;;;20.76;100.00;101381.22;4986190;28;20413;-75
2022/05/19 06:22:09;;;;;;;12.03;6.43;;;;;;;20.69;100.00;101369.56;4987400;28;20158;-74
2022/05/19 06:24:35;;;;;;;9.30;8.23;;;;;;;20.19;100.00;101383.63;4994656;28;20443;-74
2022/05/19 06:27:00;;;;;;;10.83;7.20;;;;;;;20.36;100.00;101424.69;4986139;28;20101;-74
2022/05/19 06:29:26;;;;;;;12.68;9.35;;;;;;;20.39;100.00;101421.53;4986686;28;20034;-75
2022/05/19 06:31:51;;;;;;;9.82;7.25;;;;;;;20.88;100.00;101420.19;4984680;28;20516;-74
2022/05/19 06:34:17;;;;;;;17.57;7.60;;;;;;;21.05;100.00;101388.81;5002216;28;20077;-75
2022/05/19 06:36:43;;;;;;;9.93;7.10;;;;;;;21.24;100.00;101410.66;4986732;28;20098;-75
2022/05/19 06:39:09;;;;;;;9.30;7.53;;;;;;;21.13;100.00;101370.59;4985753;28;20149;-75
2022/05/19 06:44:19;;;;;;;11.68;7.07;;;;;;;21.04;100.00;101418.88;4980812;28;20049;-75
2022/05/19 06:46:45;;;;;;;12.37;7.30;;;;;;;21.80;100.00;101431.66;4986192;28;20027;-74
2022/05/19 06:49:11;;;;;;;9.25;7.22;;;;;;;22.42;100.00;101320.22;4986630;28;20973;-75
2022/05/19 06:51:36;;;;;;;11.03;6.77;;;;;;;22.34;100.00;101285.19;4985780;28;20027;-74
2022/05/19 06:54:02;;;;;;;9.88;7.35;;;;;;;22.04;100.00;101334.81;4985238;28;20313;-75
2022/05/19 06:56:28;;;;;;;11.27;7.38;;;;;;;22.49;100.00;101298.38;4986369;28;20045;-75
2022/05/19 06:58:53;;;;;;;9.13;6.88;;;;;;;22.87;95.74;101276.28;4985344;28;20427;-75
2022/05/19 07:01:19;;;;;;;9.60;7.00;;;;;;;22.45;98.95;101292.56;4986481;28;20034;-75
2022/05/19 07:03:44;;;;;;;12.05;6.38;;;;;;;22.65;100.00;101364.97;4983301;28;20039;-75
2022/05/19 07:06:10;;;;;;;9.13;6.80;;;;;;;22.99;94.90;101276.34;4985012;28;20026;-75
2022/05/19 07:08:39;;;;;;;8.03;6.33;;;;;;;23.25;91.35;101253.34;4968695;28;20699;-75
2022/05/19 07:11:05;;;;;;;11.10;7.43;;;;;;;22.91;91.95;101244.81;4984827;28;20019;-75
2022/05/19 07:13:31;;;;;;;6.85;5.97;;;;;;;22.70;97.03;101311.50;4982001;28;20038;-75
2022/05/19 07:15:57;;;;;;;8.25;6.80;;;;;;;23.06;96.03;101326.13;4985944;28;20041;-74
2022/05/19 07:18:29;;;;;;;9.90;6.82;;;;;;;23.12;90.35;101224.44;5082531;28;20397;-74
2022/05/19 07:20:54;;;;;;;8.23;6.10;;;;;;;23.27;92.73;101293.97;5076116;28;20123;-73
2022/05/19 07:23:24;;;;;;;8.10;6.17;;;;;;;23.14;89.90;101240.53;5079437;28;20115;-74
2022/05/19 07:25:50;;;;;;;7.43;6.15;;;;;;;23.07;94.19;101310.63;5076250;28;20039;-73
2022/05/19 07:28:18;;;;;;;;;;;;;;;23.14;93.67;101314.91;5057000;28;20106;-73
2022/05/19 07:30:46;;;;;;;8.50;5.90;;;;;;;22.77;96.08;101309.50;5074343;28;19912;-73
2022/05/19 07:33:15;;;;;;;11.30;6.20;;;;;;;23.36;91.94;101276.22;5064586;28;20020;-76
2022/05/19 07:35:41;;;;;;;7.03;6.13;;;;;;;23.65;91.35;101298.16;5076388;28;20123;-76
2022/05/19 07:38:06;;;;;;;8.07;5.55;;;;;;;24.34;84.62;101255.53;5078186;28;20035;-75
2022/05/19 07:40:32;;;;;;;8.60;6.78;;;;;;;24.21;81.76;101190.38;5079052;28;20048;-76
2022/05/19 07:45:42;;;;;;;9.82;5.32;;;;;;;24.62;81.18;101213.00;5077355;28;20071;-75
2022/05/19 07:48:08;;;;;;;9.25;5.65;;;;;;;25.09;79.97;101241.94;5078112;28;20028;-77
2022/05/19 07:50:33;;;;;;;7.22;5.35;;;;;;;25.05;75.09;101110.47;5078838;28;20074;-74
2022/05/19 07:53:00;;;;;;;10.70;5.82;;;;;;;24.73;76.66;101145.75;5068813;28;20025;-74
2022/05/19 07:55:25;;;;;;;8.05;5.78;;;;;;;24.97;74.45;101124.56;5078396;28;20097;-73
2022/05/19 07:57:51;;;;;;;7.65;5.15;;;;;;;25.53;71.50;101125.41;5058721;28;20113;-73
2022/05/19 08:00:17;;;;;;;6.30;4.95;;;;;;;25.39;71.66;101105.00;5076629;28;20110;-72
2022/05/19 08:02:42;;;;;;;9.90;5.60;;;;;;;24.94;73.59;101112.25;5077353;28;20463;-74
2022/05/19 08:05:08;;;;;;;7.60;5.20;;;;;;;24.81;76.11;101162.53;5076473;28;20028;-74
2022/05/19 08:07:33;;;;;;;7.40;5.60;;;;;;;24.69;76.21;101142.69;5077160;28;20108;-74
2022/05/19 08:15:36;;;;;;;6.38;4.68;;;;;;;25.47;78.05;101258.47;5069415;28;20028;-76
2022/05/19 08:18:11;;;;;;;9.65;5.57;;;;;;;25.68;72.57;101155.69;5060956;28;20024;-73
2022/05/19 08:20:39;;;;;;;8.18;5.45;;;;;;;25.54;71.90;101140.72;5077647;28;20493;-77
2022/05/19 08:23:07;;;;;;;8.02;5.00;;;;;;;25.66;71.82;101137.88;5075707;28;20047;-76
2022/05/19 08:25:33;;;;;;;6.30;5.07;;;;;;;26.06;68.95;101112.16;5077518;28;20040;-74
2022/05/19 08:27:59;;;;;;;5.43;4.57;;;;;;;26.68;65.94;101097.13;5071545;28;20412;-74
2022/05/19 08:30:26;;;;;;;5.22;4.72;;;;;;;26.38;67.51;101103.97;5046533;28;20037;-74
2022/05/19 08:32:51;;;;;;;6.40;4.53;;;;;;;27.00;66.53;101138.22;5061274;28;20060;-72
2022/05/19 08:35:17;;;;;;;4.55;3.92;;;;;;;27.00;65.17;101093.56;5064368;28;20532;-74
2022/05/19 08:37:43;;;;;;;10.43;4.95;;;;;;;26.51;66.54;101059.75;5061570;28;20579;-74
2022/05/19 08:40:09;;;;;;;10.43;4.83;;;;;;;26.37;67.20;101080.44;5063651;28;21120;-73
2022/05/19 08:42:36;;;;;;;;;;;;;;;25.99;69.80;101125.16;5063175;28;20033;-73
2022/05/19 08:45:05;;;;;;;5.75;4.70;;;;;;;26.35;70.11;101170.19;5043291;28;19920;-73
2022/05/19 08:47:37;;;;;;;5.53;4.55;;;;;;;26.23;66.56;101046.38;5045839;28;20028;-73
2022/05/19 08:50:20;;;;;;;9.35;4.63;;;;;;;26.72;67.98;101161.25;5047990;28;20048;-74
2022/05/19 08:52:48;;;;;;;4.63;4.22;;;;;;;27.94;62.19;101127.50;5062430;28;20508;-74
2022/05/19 08:55:15;;;;;;;9.02;4.90;;;;;;;28.46;58.02;101019.44;5051250;28;20039;-75
2022/05/19 08:58:05;;;;;;;10.80;5.47;;;;;;;26.95;61.67;100982.84;5063194;28;20040;-74
2022/05/19 09:00:43;;;;;;;7.93;4.45;;;;;;;26.71;63.58;101026.25;5056105;28;20106;-75
2022/05/19 09:03:30;;;;;;;7.40;5.20;;;;;;;26.50;65.16;101046.31;5055373;28;20037;-75
2022/05/19 09:06:17;;;;;;;7.95;4.40;;;;;;;26.43;64.19;101002.72;5044267;28;20033;-75
2022/05/19 09:08:49;;;;;;;6.22;5.05;;;;;;;27.27;62.69;101077.81;5061000;28;20500;-75
2022/05/19 09:11:20;;;;;;;5.40;4.70;;;;;;;27.60;60.83;101069.47;5050864;28;20033;-75
2022/05/19 09:13:51;;;;;;;10.43;4.57;;;;;;;27.91;59.43;101059.44;5061985;28;20033;-74
2022/05/19 09:16:23;;;;;;;12.75;5.05;;;;;;;27.86;57.47;100938.72;5051808;28;20040;-74
2022/05/19 09:19:02;;;;;;;6.82;4.38;;;;;;;27.08;60.64;100980.69;5060548;28;20043;-74
2022/05/19 09:21:28;;;;;;;6.35;5.28;;;;;;;26.66;63.04;101009.75;5063114;28;20035;-74
2022/05/19 09:23:53;;;;;;;17.27;4.95;;;;;;;26.38;63.97;101013.63;5060550;28;20420;-74
2022/05/19 09:26:43;;;;;;;4.75;4.00;;;;;;;27.20;61.93;101038.88;5045622;28;20036;-75
2022/05/19 09:29:12;;;;;;;9.13;4.68;;;;;;;27.18;60.75;100994.44;5056051;28;20536;-75
2022/05/19 09:32:03;;;;;;;5.40;4.50;;;;;;;27.16;60.55;100991.97;5061306;28;20035;-75
2022/05/19 09:34:30;;;;;;;4.53;4.07;;;;;;;27.58;58.43;100971.88;5054079;28;20032;-76
2022/05/19 09:37:16;;;;;;;;;;;;;;;27.45;57.82;100920.28;5062593;28;20592;-77
2022/05/19 09:39:48;;;;;;;4.95;4.38;;;;;;;27.30;57.85;100915.59;5046447;28;19924;-73
2022/05/19 09:42:22;;;;;;;8.05;4.38;;;;;;;27.55;59.14;101002.53;5033628;28;20036;-74
2022/05/19 09:44:56;;;;;;;7.32;5.57;;;;;;;27.65;57.60;100935.97;5060237;28;20043;-77
2022/05/19 09:47:31;;;;;;;5.80;4.47;;;;;;;27.68;57.97;100970.25;5062370;28;20295;-76
2022/05/19 09:50:17;;;;;;;7.95;4.68;;;;;;;27.88;57.92;100985.91;5043832;28;20033;-74
2022/05/19 09:52:45;;;;;;;7.68;4.60;;;;;;;28.12;56.96;100972.47;5062196;28;20465;-75
2022/05/19 09:55:13;;;;;;;7.80;4.85;;;;;;;28.01;56.46;100933.25;5046308;28;20052;-74
2022/05/19 09:57:53;;;;;;;6.57;4.40;;;;;;;28.60;56.79;101033.44;5044206;28;20389;-74
2022/05/19 10:00:26;;;;;;;4.57;3.90;;;;;;;29.02;54.53;100985.53;5051733;28;20036;-74
2022/05/19 10:02:56;;;;;;;6.93;4.60;;;;;;;29.20;53.30;100909.91;5061368;28;20040;-75
2022/05/19 10:05:27;;;;;;;7.35;4.28;;;;;;;29.45;53.87;101005.19;5061681;28;20044;-74
2022/05/19 10:07:58;;;;;;;7.82;4.53;;;;;;;29.26;52.14;100856.53;5061185;28;20048;-74
2022/05/19 10:10:30;;;;;;;4.63;3.97;;;;;;;29.80;52.77;101012.41;5061395;28;20033;-74
2022/05/19 10:13:02;;;;;;;7.18;5.28;;;;;;;30.54;51.06;100997.84;5060574;28;20032;-75
2022/05/19 10:15:40;;;;;;;8.95;4.72;;;;;;;30.64;50.13;100915.06;5062748;28;20032;-74
2022/05/19 10:18:30;;;;;;;7.25;4.85;;;;;;;30.14;51.18;100879.50;5059583;28;20431;-74
2022/05/19 10:21:10;;;;;;;7.72;3.90;;;;;;;30.37;51.61;100932.16;5059333;28;20057;-74
2022/05/19 10:24:03;;;;;;;4.97;3.40;;;;;;;30.03;50.32;100815.47;5062358;28;20119;-74
2022/05/19 10:26:47;;;;;;;8.85;4.20;;;;;;;30.31;49.75;100850.72;5052386;28;20036;-74
2022/05/19 10:32:40;;;;;;;7.85;4.07;;;;;;;30.29;50.02;100865.59;5061322;28;20133;-74
2022/05/19 10:35:15;;;;;;;4.72;3.20;;;;;;;30.58;50.34;100919.81;5054351;28;21044;-74
2022/05/19 10:38:13;;;;;;;4.60;3.83;;;;;;;29.86;51.32;100857.19;5061080;28;20020;-74
2022/05/19 10:40:51;;;;;;;4.70;3.25;;;;;;;29.53;51.64;100852.50;5054590;28;20040;-74
2022/05/19 10:43:43;;;;;;;5.90;3.10;;;;;;;29.62;49.60;100773.75;5049220;28;20043;-73
2022/05/19 10:46:15;;;;;;;8.32;3.38;;;;;;;30.29;51.72;100961.16;5061516;28;20056;-76
2022/05/19 10:48:52;;;;;;;7.57;3.33;;;;;;;30.72;49.78;100936.47;5053464;28;20065;-74
2022/05/19 10:51:22;;;;;;;7.70;3.70;;;;;;;30.25;50.27;100864.53;5041974;28;20451;-75
2022/05/19 10:54:25;;;;;;;6.28;4.10;;;;;;;30.59;49.81;100913.19;5058880;28;20043;-76
2022/05/19 10:57:08;;;;;;;5.82;3.90;;;;;;;30.76;50.76;100964.25;5058855;28;20028;-76
2022/05/19 10:59:55;;;;;;;6.65;4.25;;;;;;;30.74;48.93;100868.09;5061494;28;20040;-74
2022/05/19 11:02:30;;;;;;;5.80;3.70;;;;;;;30.35;48.46;100772.75;5038164;28;20103;-76
2022/05/19 11:05:09;;;;;;;9.85;3.70;;;;;;;30.89;48.48;100883.66;5059464;28;20041;-74
2022/05/19 11:07:56;;;;;;;7.28;3.85;;;;;;;31.16;49.42;100953.88;5060527;28;20109;-74
2022/05/19 11:10:34;;;;;;;7.28;3.85;;;;;;;30.83;47.80;100796.63;5049929;28;20043;-74
2022/05/19 11:13:29;;;;;;;8.23;4.00;;;;;;;30.63;50.86;100885.88;5050599;28;20033;-74
2022/05/19 11:16:13;;;;;;;;;;;;;;;30.98;47.62;100821.25;5059191;28;20403;-76
2022/05/19 11:18:48;;;;;;;4.83;3.80;;;;;;;30.93;49.98;100890.22;5059380;28;19912;-74
2022/05/19 11:21:22;;;;;;;5.05;3.97;;;;;;;30.17;49.82;100763.28;5047550;28;20039;-76
2022/05/19 11:23:58;;;;;;;7.00;3.45;;;;;;;29.77;51.47;100798.38;5059948;28;20401;-74
2022/05/19 11:26:39;;;;;;;6.13;4.37;;;;;;;29.34;53.15;100811.94;5060427;28;20040;-76
2022/05/19 11:29:05;;;;;;;4.93;4.43;;;;;;;29.45;53.43;100831.91;5059871;28;20059;-74
2022/05/19 11:32:03;;;;;;;5.20;4.00;;;;;;;30.18;51.68;100885.22;5060245;28;20024;-74
2022/05/19 11:34:39;;;;;;;7.38;4.53;;;;;;;30.17;53.01;100922.16;5057635;28;20037;-74
2022/05/19 11:37:10;;;;;;;;;;;;;;;30.18;51.16;100847.53;5051943;28;20113;-74
2022/05/19 11:39:45;;;;;;;7.97;4.05;;;;;;;29.80;54.28;100913.38;5061539;28;19954;-74
2022/05/19 11:42:29;;;;;;;8.43;5.05;;;;;;;29.96;52.10;100834.25;5053116;28;20028;-76
2022/05/19 11:44:55;;;;;;;6.55;4.50;;;;;;;29.66;52.41;100802.31;5058626;28;20041;-74